DAL4522 KPHF-KJFK
Flight info
| Callsign | DAL4522 |
|---|---|
| Flight time | 0h 43m |
| Altitude | 27000 |
| Route | JAMIE ZJAAY Q108 SIE CAMRN5 |
| Aircraft | B738/M-SDE2E3FGHIRWXY/LB1 |
Departure
| Time | 2026-05-07 12:03 |
|---|---|
| Airport | Newport News Williamsburg International Airport (KPHF) |
Arrival
| Time | 2026-05-07 12:47 |
|---|---|
| Airport | John F. Kennedy International Airport (KJFK) |
| Time | Latitude | Longitude | Altitude | Speed | Heading |
|---|---|---|---|---|---|
| 2026-05-07 11:49 | 37.12916 | -76.50131 | 46 ft | 0 kts | 351° |
| 2026-05-07 11:58 | 37.12915 | -76.50130 | 46 ft | 1 kts | 351° |
| 2026-05-07 11:58 | 37.12895 | -76.50127 | 42 ft | 4 kts | 4° |
| 2026-05-07 11:59 | 37.12871 | -76.50137 | 45 ft | 4 kts | 39° |
| 2026-05-07 11:59 | 37.12858 | -76.50152 | 41 ft | 0 kts | 52° |
| 2026-05-07 12:00 | 37.12875 | -76.50115 | 42 ft | 11 kts | 74° |
| 2026-05-07 12:01 | 37.12846 | -76.50018 | 46 ft | 11 kts | 154° |
| 2026-05-07 12:01 | 37.12769 | -76.50028 | 45 ft | 13 kts | 194° |
| 2026-05-07 12:01 | 37.12674 | -76.50065 | 43 ft | 15 kts | 212° |
| 2026-05-07 12:01 | 37.12629 | -76.50146 | 45 ft | 9 kts | 238° |
| 2026-05-07 12:02 | 37.12603 | -76.50181 | 44 ft | 9 kts | 205° |
| 2026-05-07 12:02 | 37.12549 | -76.50161 | 44 ft | 8 kts | 147° |
| 2026-05-07 12:02 | 37.12512 | -76.50114 | 44 ft | 7 kts | 93° |
| 2026-05-07 12:02 | 37.12534 | -76.50069 | 44 ft | 12 kts | 56° |
| 2026-05-07 12:03 | 37.12718 | -76.49703 | 42 ft | 86 kts | 58° |
| 2026-05-07 12:03 | 37.13160 | -76.48829 | 59 ft | 148 kts | 56° |
| 2026-05-07 12:03 | 37.13778 | -76.47618 | 520 ft | 176 kts | 54° |
| 2026-05-07 12:03 | 37.14473 | -76.46264 | 1298 ft | 195 kts | 54° |
| 2026-05-07 12:04 | 37.15252 | -76.44836 | 1961 ft | 199 kts | 51° |
| 2026-05-07 12:04 | 37.16114 | -76.43378 | 2302 ft | 222 kts | 50° |
| 2026-05-07 12:04 | 37.17077 | -76.41783 | 2746 ft | 236 kts | 49° |
| 2026-05-07 12:04 | 37.18203 | -76.40244 | 3236 ft | 244 kts | 38° |
| 2026-05-07 12:05 | 37.19553 | -76.38833 | 3666 ft | 261 kts | 35° |
| 2026-05-07 12:05 | 37.20985 | -76.37410 | 4564 ft | 261 kts | 34° |
| 2026-05-07 12:05 | 37.22429 | -76.35971 | 5334 ft | 270 kts | 35° |
| 2026-05-07 12:05 | 37.23917 | -76.34478 | 6084 ft | 278 kts | 35° |
| 2026-05-07 12:06 | 37.25435 | -76.32942 | 6894 ft | 283 kts | 36° |
| 2026-05-07 12:06 | 37.26979 | -76.31367 | 7626 ft | 289 kts | 36° |
| 2026-05-07 12:06 | 37.28555 | -76.29752 | 8337 ft | 296 kts | 36° |
| 2026-05-07 12:06 | 37.30162 | -76.28097 | 9096 ft | 301 kts | 36° |
| 2026-05-07 12:07 | 37.31775 | -76.26432 | 9800 ft | 308 kts | 36° |
| 2026-05-07 12:07 | 37.33464 | -76.24684 | 10490 ft | 313 kts | 36° |
| 2026-05-07 12:07 | 37.35128 | -76.22960 | 11201 ft | 317 kts | 36° |
| 2026-05-07 12:07 | 37.36875 | -76.21150 | 11521 ft | 337 kts | 37° |
| 2026-05-07 12:08 | 37.38750 | -76.19209 | 11697 ft | 361 kts | 37° |
| 2026-05-07 12:08 | 37.40751 | -76.17132 | 11871 ft | 383 kts | 37° |
| 2026-05-07 12:08 | 37.42847 | -76.14952 | 12245 ft | 397 kts | 37° |
| 2026-05-07 12:08 | 37.44991 | -76.12716 | 12856 ft | 402 kts | 37° |
| 2026-05-07 12:09 | 37.47155 | -76.10456 | 13534 ft | 406 kts | 38° |
| 2026-05-07 12:09 | 37.49337 | -76.08178 | 14133 ft | 410 kts | 38° |
| 2026-05-07 12:09 | 37.51550 | -76.05868 | 14681 ft | 415 kts | 38° |
| 2026-05-07 12:09 | 37.53787 | -76.03531 | 15235 ft | 420 kts | 37° |
| 2026-05-07 12:10 | 37.56048 | -76.01167 | 15805 ft | 424 kts | 37° |
| 2026-05-07 12:10 | 37.58335 | -75.98776 | 16350 ft | 429 kts | 37° |
| 2026-05-07 12:10 | 37.60645 | -75.96358 | 16893 ft | 434 kts | 37° |
| 2026-05-07 12:10 | 37.62938 | -75.93851 | 17425 ft | 439 kts | 39° |
| 2026-05-07 12:11 | 37.65206 | -75.91236 | 17962 ft | 444 kts | 40° |
| 2026-05-07 12:11 | 37.67477 | -75.88564 | 18473 ft | 448 kts | 40° |
| 2026-05-07 12:11 | 37.69769 | -75.85860 | 18913 ft | 453 kts | 40° |
| 2026-05-07 12:11 | 37.72085 | -75.83138 | 19347 ft | 457 kts | 40° |
| 2026-05-07 12:12 | 37.74430 | -75.80394 | 19781 ft | 462 kts | 39° |
| 2026-05-07 12:12 | 37.76799 | -75.77631 | 20224 ft | 466 kts | 39° |
| 2026-05-07 12:12 | 37.79195 | -75.74843 | 20661 ft | 470 kts | 39° |
| 2026-05-07 12:12 | 37.81608 | -75.72034 | 21088 ft | 474 kts | 38° |
| 2026-05-07 12:13 | 37.84049 | -75.69191 | 21525 ft | 478 kts | 38° |
| 2026-05-07 12:13 | 37.86504 | -75.66329 | 21938 ft | 482 kts | 38° |
| 2026-05-07 12:13 | 37.88978 | -75.63441 | 22378 ft | 486 kts | 38° |
| 2026-05-07 12:13 | 37.91468 | -75.60529 | 22814 ft | 489 kts | 38° |
| 2026-05-07 12:14 | 37.93943 | -75.57632 | 23241 ft | 492 kts | 38° |
| 2026-05-07 12:14 | 37.96493 | -75.54644 | 23669 ft | 494 kts | 38° |
| 2026-05-07 12:14 | 37.98980 | -75.51726 | 24125 ft | 493 kts | 38° |
| 2026-05-07 12:14 | 38.01490 | -75.48778 | 24628 ft | 492 kts | 38° |
| 2026-05-07 12:15 | 38.04000 | -75.45832 | 25079 ft | 492 kts | 37° |
| 2026-05-07 12:15 | 38.06624 | -75.43078 | 25422 ft | 488 kts | 28° |
| 2026-05-07 12:15 | 38.09468 | -75.40726 | 25786 ft | 487 kts | 24° |
| 2026-05-07 12:15 | 38.12345 | -75.38456 | 26221 ft | 487 kts | 24° |
| 2026-05-07 12:16 | 38.15227 | -75.36175 | 26681 ft | 488 kts | 24° |
| 2026-05-07 12:16 | 38.18096 | -75.33859 | 27138 ft | 489 kts | 24° |
| 2026-05-07 12:16 | 38.20959 | -75.31515 | 27558 ft | 490 kts | 24° |
| 2026-05-07 12:16 | 38.23898 | -75.29385 | 27970 ft | 481 kts | 14° |
| 2026-05-07 12:17 | 38.26961 | -75.27838 | 28442 ft | 467 kts | 5° |
| 2026-05-07 12:17 | 38.30063 | -75.26905 | 28916 ft | 451 kts | 355° |
| 2026-05-07 12:17 | 38.33181 | -75.26298 | 28953 ft | 456 kts | 354° |
| 2026-05-07 12:18 | 38.39451 | -75.25121 | 28968 ft | 458 kts | 354° |
| 2026-05-07 12:18 | 38.45872 | -75.23823 | 28975 ft | 476 kts | 355° |
| 2026-05-07 12:19 | 38.52511 | -75.22422 | 28980 ft | 491 kts | 356° |
| 2026-05-07 12:19 | 38.59324 | -75.20958 | 28985 ft | 502 kts | 356° |
| 2026-05-07 12:20 | 38.66227 | -75.19415 | 28967 ft | 508 kts | 0° |
| 2026-05-07 12:20 | 38.69658 | -75.18043 | 28968 ft | 525 kts | 10° |
| 2026-05-07 12:20 | 38.72996 | -75.16007 | 28968 ft | 539 kts | 19° |
| 2026-05-07 12:20 | 38.76143 | -75.13289 | 28976 ft | 551 kts | 27° |
| 2026-05-07 12:21 | 38.79187 | -75.10279 | 28975 ft | 553 kts | 29° |
| 2026-05-07 12:21 | 38.84821 | -75.04512 | 28977 ft | 554 kts | 29° |
| 2026-05-07 12:22 | 38.90818 | -74.98490 | 28967 ft | 546 kts | 28° |
| 2026-05-07 12:22 | 38.96846 | -74.92569 | 28983 ft | 547 kts | 27° |
| 2026-05-07 12:22 | 38.99878 | -74.89600 | 28763 ft | 550 kts | 27° |
| 2026-05-07 12:23 | 39.02946 | -74.86581 | 28244 ft | 546 kts | 28° |
| 2026-05-07 12:23 | 39.05943 | -74.83616 | 27733 ft | 540 kts | 28° |
| 2026-05-07 12:23 | 39.08907 | -74.80682 | 27212 ft | 535 kts | 28° |
| 2026-05-07 12:23 | 39.11793 | -74.77776 | 26705 ft | 532 kts | 30° |
| 2026-05-07 12:24 | 39.14677 | -74.74703 | 26196 ft | 529 kts | 32° |
| 2026-05-07 12:24 | 39.17431 | -74.71680 | 25712 ft | 526 kts | 32° |
| 2026-05-07 12:24 | 39.20197 | -74.68622 | 25207 ft | 522 kts | 32° |
| 2026-05-07 12:24 | 39.22948 | -74.65596 | 24703 ft | 518 kts | 32° |
| 2026-05-07 12:25 | 39.25723 | -74.62565 | 24189 ft | 514 kts | 32° |
| 2026-05-07 12:25 | 39.28414 | -74.59641 | 23698 ft | 511 kts | 32° |
| 2026-05-07 12:25 | 39.31131 | -74.56695 | 23131 ft | 508 kts | 32° |
| 2026-05-07 12:25 | 39.33825 | -74.53771 | 22595 ft | 504 kts | 33° |
| 2026-05-07 12:26 | 39.36496 | -74.50868 | 22084 ft | 499 kts | 33° |
| 2026-05-07 12:26 | 39.39136 | -74.47994 | 21588 ft | 494 kts | 33° |
| 2026-05-07 12:26 | 39.41752 | -74.45141 | 21092 ft | 490 kts | 33° |
| 2026-05-07 12:26 | 39.44344 | -74.42313 | 20617 ft | 485 kts | 33° |
| 2026-05-07 12:27 | 39.46917 | -74.39502 | 20139 ft | 481 kts | 33° |
| 2026-05-07 12:27 | 39.49462 | -74.36720 | 19664 ft | 478 kts | 33° |
| 2026-05-07 12:27 | 39.51991 | -74.33955 | 19190 ft | 474 kts | 34° |
| 2026-05-07 12:27 | 39.54502 | -74.31206 | 18704 ft | 471 kts | 34° |
| 2026-05-07 12:28 | 39.56996 | -74.28473 | 18211 ft | 469 kts | 34° |
| 2026-05-07 12:28 | 39.59475 | -74.25752 | 17707 ft | 465 kts | 34° |
| 2026-05-07 12:28 | 39.61924 | -74.23061 | 17274 ft | 459 kts | 34° |
| 2026-05-07 12:28 | 39.64338 | -74.20405 | 16923 ft | 451 kts | 34° |
| 2026-05-07 12:29 | 39.66714 | -74.17789 | 16532 ft | 445 kts | 34° |
| 2026-05-07 12:29 | 39.69062 | -74.15204 | 16142 ft | 439 kts | 34° |
| 2026-05-07 12:29 | 39.71375 | -74.12653 | 15761 ft | 434 kts | 34° |
| 2026-05-07 12:29 | 39.73659 | -74.10132 | 15381 ft | 429 kts | 34° |
| 2026-05-07 12:30 | 39.75918 | -74.07637 | 15003 ft | 423 kts | 34° |
| 2026-05-07 12:30 | 39.78148 | -74.05174 | 14635 ft | 418 kts | 34° |
| 2026-05-07 12:30 | 39.80351 | -74.02737 | 14273 ft | 414 kts | 34° |
| 2026-05-07 12:30 | 39.82533 | -74.00321 | 13903 ft | 410 kts | 34° |
| 2026-05-07 12:31 | 39.84732 | -73.98011 | 13507 ft | 400 kts | 27° |
| 2026-05-07 12:31 | 39.87106 | -73.96222 | 13134 ft | 390 kts | 20° |
| 2026-05-07 12:31 | 39.89506 | -73.94602 | 12768 ft | 386 kts | 20° |
| 2026-05-07 12:31 | 39.91852 | -73.93026 | 12399 ft | 373 kts | 20° |
| 2026-05-07 12:32 | 39.94118 | -73.91474 | 12036 ft | 362 kts | 20° |
| 2026-05-07 12:32 | 39.96278 | -73.89965 | 11698 ft | 352 kts | 21° |
| 2026-05-07 12:32 | 39.98402 | -73.88464 | 11390 ft | 342 kts | 21° |
| 2026-05-07 12:32 | 40.00488 | -73.86982 | 11087 ft | 332 kts | 21° |
| 2026-05-07 12:33 | 40.04380 | -73.84035 | 10519 ft | 323 kts | 24° |
| 2026-05-07 12:33 | 40.06303 | -73.82520 | 10235 ft | 322 kts | 24° |
| 2026-05-07 12:33 | 40.08212 | -73.81015 | 9954 ft | 320 kts | 25° |
| 2026-05-07 12:34 | 40.10119 | -73.79517 | 9672 ft | 318 kts | 25° |
| 2026-05-07 12:34 | 40.12012 | -73.78033 | 9384 ft | 316 kts | 25° |
| 2026-05-07 12:34 | 40.13893 | -73.76565 | 9103 ft | 314 kts | 24° |
| 2026-05-07 12:34 | 40.15763 | -73.75108 | 8819 ft | 312 kts | 25° |
| 2026-05-07 12:35 | 40.17610 | -73.73642 | 8539 ft | 310 kts | 25° |
| 2026-05-07 12:35 | 40.19447 | -73.72171 | 8256 ft | 308 kts | 25° |
| 2026-05-07 12:35 | 40.21266 | -73.70710 | 7979 ft | 306 kts | 25° |
| 2026-05-07 12:35 | 40.23071 | -73.69256 | 7708 ft | 304 kts | 25° |
| 2026-05-07 12:36 | 40.24867 | -73.67810 | 7433 ft | 302 kts | 25° |
| 2026-05-07 12:36 | 40.26644 | -73.66377 | 7153 ft | 297 kts | 25° |
| 2026-05-07 12:36 | 40.28396 | -73.64959 | 6885 ft | 294 kts | 25° |
| 2026-05-07 12:36 | 40.30112 | -73.63565 | 6602 ft | 286 kts | 25° |
| 2026-05-07 12:37 | 40.31777 | -73.62199 | 6336 ft | 279 kts | 25° |
| 2026-05-07 12:37 | 40.33392 | -73.60865 | 6068 ft | 270 kts | 25° |
| 2026-05-07 12:37 | 40.34939 | -73.59582 | 5809 ft | 256 kts | 25° |
| 2026-05-07 12:37 | 40.36405 | -73.58362 | 5553 ft | 245 kts | 25° |
| 2026-05-07 12:38 | 40.37822 | -73.57184 | 5283 ft | 237 kts | 25° |
| 2026-05-07 12:38 | 40.39195 | -73.56047 | 4996 ft | 230 kts | 26° |
| 2026-05-07 12:38 | 40.40531 | -73.54951 | 4714 ft | 224 kts | 26° |
| 2026-05-07 12:38 | 40.41835 | -73.53893 | 4431 ft | 217 kts | 26° |
| 2026-05-07 12:39 | 40.43108 | -73.52872 | 4145 ft | 212 kts | 25° |
| 2026-05-07 12:39 | 40.44334 | -73.51896 | 3987 ft | 199 kts | 25° |
| 2026-05-07 12:39 | 40.45467 | -73.51014 | 3980 ft | 189 kts | 24° |
| 2026-05-07 12:39 | 40.46609 | -73.50166 | 3981 ft | 189 kts | 23° |
| 2026-05-07 12:40 | 40.47751 | -73.49324 | 3980 ft | 188 kts | 23° |
| 2026-05-07 12:40 | 40.48899 | -73.48512 | 3977 ft | 186 kts | 15° |
| 2026-05-07 12:40 | 40.50128 | -73.48388 | 3997 ft | 175 kts | 347° |
| 2026-05-07 12:40 | 40.51277 | -73.48864 | 3993 ft | 172 kts | 331° |
| 2026-05-07 12:41 | 40.52117 | -73.49921 | 4005 ft | 168 kts | 304° |
| 2026-05-07 12:41 | 40.52828 | -73.51154 | 3991 ft | 170 kts | 308° |
| 2026-05-07 12:41 | 40.53570 | -73.52377 | 3986 ft | 172 kts | 307° |
| 2026-05-07 12:41 | 40.54273 | -73.53665 | 3953 ft | 175 kts | 304° |
| 2026-05-07 12:42 | 40.54925 | -73.55007 | 3745 ft | 173 kts | 302° |
| 2026-05-07 12:42 | 40.55545 | -73.56350 | 3522 ft | 171 kts | 302° |
| 2026-05-07 12:42 | 40.56157 | -73.57698 | 3297 ft | 172 kts | 302° |
| 2026-05-07 12:42 | 40.56768 | -73.59054 | 3054 ft | 172 kts | 303° |
| 2026-05-07 12:43 | 40.57379 | -73.60413 | 2843 ft | 173 kts | 303° |
| 2026-05-07 12:43 | 40.57996 | -73.61781 | 2606 ft | 175 kts | 304° |
| 2026-05-07 12:43 | 40.58611 | -73.63150 | 2362 ft | 172 kts | 305° |
| 2026-05-07 12:43 | 40.59213 | -73.64484 | 2118 ft | 168 kts | 306° |
| 2026-05-07 12:44 | 40.59796 | -73.65778 | 1879 ft | 161 kts | 306° |
| 2026-05-07 12:44 | 40.60345 | -73.67001 | 1691 ft | 150 kts | 306° |
| 2026-05-07 12:44 | 40.60864 | -73.68149 | 1486 ft | 143 kts | 306° |
| 2026-05-07 12:44 | 40.61378 | -73.69282 | 1277 ft | 144 kts | 304° |
| 2026-05-07 12:45 | 40.61881 | -73.70400 | 1083 ft | 140 kts | 304° |
| 2026-05-07 12:45 | 40.62378 | -73.71502 | 879 ft | 141 kts | 304° |
| 2026-05-07 12:45 | 40.62885 | -73.72621 | 684 ft | 143 kts | 303° |
| 2026-05-07 12:45 | 40.63383 | -73.73734 | 458 ft | 141 kts | 302° |
| 2026-05-07 12:46 | 40.63874 | -73.74835 | 290 ft | 139 kts | 303° |
| 2026-05-07 12:46 | 40.64374 | -73.75931 | 107 ft | 137 kts | 302° |
| 2026-05-07 12:46 | 40.64851 | -73.76975 | 22 ft | 126 kts | 300° |
| 2026-05-07 12:46 | 40.65168 | -73.77676 | 18 ft | 60 kts | 301° |
| 2026-05-07 12:47 | 40.65227 | -73.77908 | 19 ft | 18 kts | 236° |
| 2026-05-07 12:47 | 40.65131 | -73.77994 | 19 ft | 16 kts | 208° |
| 2026-05-07 12:47 | 40.65083 | -73.77983 | 19 ft | 4 kts | 141° |
| 2026-05-07 12:47 | 40.65030 | -73.77861 | 19 ft | 22 kts | 118° |
| 2026-05-07 12:48 | 40.64943 | -73.77668 | 19 ft | 26 kts | 121° |
| 2026-05-07 12:48 | 40.64853 | -73.77469 | 19 ft | 24 kts | 121° |
| 2026-05-07 12:48 | 40.64769 | -73.77283 | 19 ft | 23 kts | 121° |
| 2026-05-07 12:48 | 40.64672 | -73.77111 | 19 ft | 25 kts | 149° |
| 2026-05-07 12:49 | 40.64496 | -73.77090 | 19 ft | 27 kts | 181° |
| 2026-05-07 12:49 | 40.64332 | -73.77181 | 19 ft | 25 kts | 210° |
| 2026-05-07 12:49 | 40.64188 | -73.77296 | 20 ft | 23 kts | 212° |
| 2026-05-07 12:49 | 40.64083 | -73.77435 | 19 ft | 22 kts | 275° |
| 2026-05-07 12:50 | 40.64180 | -73.77581 | 20 ft | 22 kts | 284° |
| 2026-05-07 12:50 | 40.64129 | -73.77759 | 19 ft | 21 kts | 240° |
| 2026-05-07 12:50 | 40.64060 | -73.77925 | 19 ft | 20 kts | 249° |
| 2026-05-07 12:50 | 40.64095 | -73.78009 | 19 ft | 15 kts | 326° |
| 2026-05-07 12:51 | 40.64090 | -73.78073 | 19 ft | 7 kts | 237° |
| 2026-05-07 12:51 | 40.64070 | -73.78115 | 20 ft | 0 kts | 238° |